createdAt,value
2022-11-05T00:04:05.905Z,0
2022-11-05T00:09:10.121Z,0
2022-11-05T00:14:14.178Z,0
2022-11-05T00:19:18.356Z,0
2022-11-05T00:24:24.320Z,0
2022-11-05T00:29:26.647Z,0
2022-11-05T00:34:30.826Z,0
2022-11-05T00:39:34.948Z,0
2022-11-05T00:44:39.139Z,0
2022-11-05T00:49:43.289Z,0
2022-11-05T00:54:47.502Z,0
2022-11-05T00:59:51.625Z,0
2022-11-05T01:04:55.792Z,0
2022-11-05T01:09:59.937Z,0
2022-11-05T01:15:04.103Z,0
2022-11-05T01:20:08.277Z,0
2022-11-05T01:25:12.420Z,0
2022-11-05T01:30:16.587Z,0
2022-11-05T01:35:20.743Z,0
2022-11-05T01:40:24.925Z,0
2022-11-05T01:45:29.139Z,0
2022-11-05T01:50:33.239Z,0
2022-11-05T01:55:37.395Z,0
2022-11-05T02:00:41.557Z,0
2022-11-05T02:05:45.759Z,0
2022-11-05T02:15:54.070Z,0
2022-11-05T02:20:58.190Z,0
2022-11-05T02:26:02.393Z,0
2022-11-05T02:31:06.552Z,0
2022-11-05T02:36:10.709Z,0
2022-11-05T02:41:14.916Z,0
2022-11-05T02:46:19.036Z,0
2022-11-05T02:51:23.179Z,0
2022-11-05T02:56:27.386Z,0
2022-11-05T03:01:31.652Z,0
2022-11-05T03:06:35.667Z,0
2022-11-05T03:11:39.860Z,0
2022-11-05T03:16:44.036Z,0
2022-11-05T03:21:48.180Z,0
2022-11-05T03:26:52.359Z,0
2022-11-05T03:31:56.520Z,0
2022-11-05T03:37:00.712Z,0
2022-11-05T03:42:04.821Z,0
2022-11-05T03:47:08.966Z,0
2022-11-05T03:52:11.287Z,0
2022-11-05T03:57:15.438Z,0
2022-11-05T04:02:19.754Z,0
2022-11-05T04:07:23.763Z,0
2022-11-05T04:12:27.945Z,0
2022-11-05T04:17:32.078Z,0
2022-11-05T04:22:36.253Z,0
2022-11-05T04:27:40.397Z,0
2022-11-05T04:32:44.583Z,0
2022-11-05T04:37:48.736Z,0
2022-11-05T04:42:52.945Z,0
2022-11-05T04:47:57.058Z,0
2022-11-05T04:53:01.253Z,0
2022-11-05T04:58:05.394Z,0
2022-11-05T05:03:09.775Z,0
2022-11-05T05:08:13.753Z,0
2022-11-05T05:13:17.888Z,0
2022-11-05T05:18:22.037Z,0
2022-11-05T05:23:26.186Z,0
2022-11-05T05:28:30.397Z,0
2022-11-05T05:33:34.514Z,0
2022-11-05T05:38:38.724Z,0
2022-11-05T05:43:42.864Z,0
2022-11-05T05:48:47.013Z,0
2022-11-05T05:53:51.184Z,0
2022-11-05T05:58:55.370Z,0
2022-11-05T06:03:59.495Z,0
2022-11-05T06:09:03.686Z,2
2022-11-05T06:14:07.883Z,6
2022-11-05T06:19:11.988Z,16
2022-11-05T06:24:16.178Z,39
2022-11-05T06:29:20.327Z,76
2022-11-05T06:34:24.496Z,130
2022-11-05T06:39:28.630Z,197
2022-11-05T06:44:32.860Z,280
2022-11-05T06:49:36.981Z,375
2022-11-05T06:54:41.133Z,485
2022-11-05T06:59:45.290Z,590
2022-11-05T07:04:49.484Z,698
2022-11-05T07:09:53.687Z,801
2022-11-05T07:14:57.785Z,890
2022-11-05T07:20:01.961Z,1001
2022-11-05T07:25:06.110Z,1101
2022-11-05T07:30:10.311Z,1156
2022-11-05T07:35:14.463Z,1215
2022-11-05T07:40:18.960Z,1274
2022-11-05T07:45:22.772Z,1326
2022-11-05T07:50:27.161Z,1363
2022-11-05T07:55:31.112Z,1437
2022-11-05T08:00:35.391Z,1505
2022-11-05T08:05:39.439Z,1511
2022-11-05T08:10:43.611Z,1532
2022-11-05T08:15:47.839Z,1561
2022-11-05T08:20:51.950Z,1548
2022-11-05T08:25:56.052Z,1556
2022-11-05T08:31:00.267Z,1580
2022-11-05T08:36:04.389Z,1605
2022-11-05T08:41:08.563Z,1619
2022-11-05T08:46:12.711Z,1654
2022-11-05T08:51:16.935Z,1651
2022-11-05T08:56:21.044Z,1674
2022-11-05T09:01:25.339Z,1648
2022-11-05T09:06:29.370Z,1657
2022-11-05T09:12:05.282Z,1648
2022-11-05T09:16:37.709Z,1706
2022-11-05T09:21:39.995Z,1740
2022-11-05T09:26:44.120Z,1769
2022-11-05T09:31:48.313Z,1819
2022-11-05T09:36:52.467Z,1853
2022-11-05T09:41:56.652Z,1860
2022-11-05T09:47:00.785Z,1901
2022-11-05T09:52:04.967Z,1930
2022-11-05T09:57:09.114Z,1933
2022-11-05T10:02:13.408Z,1944
2022-11-05T10:07:17.420Z,1956
2022-11-05T10:12:21.571Z,1935
2022-11-05T10:17:25.745Z,1936
2022-11-05T10:22:29.935Z,2040
2022-11-05T10:27:34.073Z,2017
2022-11-05T10:32:38.251Z,1950
2022-11-05T10:37:42.388Z,1717
2022-11-05T10:42:46.573Z,1886
2022-11-05T10:47:50.758Z,2193
2022-11-05T10:52:54.991Z,2183
2022-11-05T10:57:59.030Z,2410
2022-11-05T11:03:03.194Z,2400
2022-11-05T11:08:07.404Z,2725
2022-11-05T11:13:11.879Z,3385
2022-11-05T11:18:15.737Z,3504
2022-11-05T11:23:19.875Z,3535
2022-11-05T11:28:24.036Z,3881
2022-11-05T11:33:28.182Z,4015
2022-11-05T11:38:32.313Z,4213
2022-11-05T11:43:36.489Z,4107
2022-11-05T11:48:40.683Z,4271
2022-11-05T11:53:44.804Z,4203
2022-11-05T11:58:48.991Z,3847
2022-11-05T12:03:53.151Z,3670
2022-11-05T12:09:03.684Z,3050
2022-11-05T12:14:01.444Z,2840
2022-11-05T12:19:05.622Z,3174
2022-11-05T12:24:09.808Z,2860
2022-11-05T12:29:18.785Z,3946
2022-11-05T12:34:18.103Z,4379
2022-11-05T12:39:22.284Z,4585
2022-11-05T12:44:26.433Z,4198
2022-11-05T12:49:30.604Z,4164
2022-11-05T12:54:34.772Z,4861
2022-11-05T12:59:38.900Z,4550
2022-11-05T13:04:43.085Z,3743
2022-11-05T13:09:47.284Z,2835
2022-11-05T13:14:51.440Z,3303
2022-11-05T13:19:55.648Z,1726
2022-11-05T13:24:59.772Z,1398
2022-11-05T13:30:03.951Z,1501
2022-11-05T13:35:08.140Z,2705
2022-11-05T13:40:12.280Z,4145
2022-11-05T13:45:16.403Z,4020
2022-11-05T13:50:20.657Z,3639
2022-11-05T13:55:24.762Z,3590
2022-11-05T14:00:28.875Z,3166
2022-11-05T14:05:33.039Z,2546
2022-11-05T14:10:37.235Z,2111
2022-11-05T14:15:41.367Z,1973
2022-11-05T14:20:45.531Z,1870
2022-11-05T14:25:49.719Z,1857
2022-11-05T14:30:53.846Z,1780
2022-11-05T14:35:58.077Z,2126
2022-11-05T14:41:02.204Z,2007
2022-11-05T14:46:06.340Z,1996
2022-11-05T14:51:18.147Z,1745
2022-11-05T14:56:12.809Z,1481
2022-11-05T15:01:17.049Z,1358
2022-11-05T15:06:21.113Z,1229
2022-11-05T15:11:25.225Z,1050
2022-11-05T15:16:29.439Z,964
2022-11-05T15:21:31.687Z,874
2022-11-05T15:26:35.823Z,685
2022-11-05T15:31:39.979Z,636
2022-11-05T15:36:44.172Z,516
2022-11-05T15:41:48.350Z,323
2022-11-05T15:46:52.507Z,235
2022-11-05T15:51:56.679Z,179
2022-11-05T15:57:00.792Z,129
2022-11-05T16:02:05.095Z,96
2022-11-05T16:07:09.131Z,64
2022-11-05T16:12:13.292Z,37
2022-11-05T16:17:17.427Z,19
2022-11-05T16:22:21.597Z,8
2022-11-05T16:27:25.815Z,3
2022-11-05T16:32:31.123Z,0
2022-11-05T16:37:34.120Z,0
2022-11-05T16:42:38.233Z,0
2022-11-05T16:47:42.425Z,0
2022-11-05T16:52:46.694Z,0
2022-11-05T16:57:50.723Z,0
2022-11-05T17:02:55.020Z,0
2022-11-05T17:07:59.094Z,0
2022-11-05T17:13:03.226Z,0
2022-11-05T17:18:07.417Z,0
2022-11-05T17:23:11.901Z,0
2022-11-05T17:28:16.202Z,0
2022-11-05T17:33:19.912Z,0
2022-11-05T17:38:24.051Z,0
2022-11-05T17:43:28.206Z,0
2022-11-05T17:48:32.364Z,0
2022-11-05T17:53:36.524Z,0
2022-11-05T17:58:40.719Z,0
2022-11-05T18:03:44.896Z,0
2022-11-05T18:08:48.994Z,0
2022-11-05T18:13:53.169Z,0
2022-11-05T18:18:57.341Z,0
2022-11-05T18:24:01.492Z,0
2022-11-05T18:29:05.641Z,0
2022-11-05T18:34:09.838Z,0
2022-11-05T18:39:13.961Z,0
2022-11-05T18:44:18.129Z,0
2022-11-05T18:49:22.283Z,0
2022-11-05T18:54:26.483Z,0
2022-11-05T18:59:37.670Z,0
2022-11-05T19:04:34.772Z,0
2022-11-05T19:09:39.029Z,0
2022-11-05T19:14:43.102Z,0
2022-11-05T19:19:47.269Z,0
2022-11-05T19:24:51.423Z,0
2022-11-05T19:29:55.805Z,0
2022-11-05T19:34:59.722Z,0
2022-11-05T19:40:03.881Z,0
2022-11-05T19:45:30.372Z,0
2022-11-05T19:50:12.204Z,0
2022-11-05T19:55:16.404Z,0
2022-11-05T20:00:20.547Z,0
2022-11-05T20:05:24.693Z,0
2022-11-05T20:10:28.832Z,0
2022-11-05T20:15:33.007Z,0
2022-11-05T20:20:37.137Z,0
2022-11-05T20:25:41.355Z,0
2022-11-05T20:30:45.474Z,0
2022-11-05T20:35:49.673Z,0
2022-11-05T20:40:53.820Z,0
2022-11-05T20:45:57.983Z,0
2022-11-05T20:51:00.238Z,0
2022-11-05T20:56:07.818Z,0
2022-11-05T21:01:08.625Z,0
2022-11-05T21:06:12.743Z,0
2022-11-05T21:11:16.887Z,0
2022-11-05T21:16:21.098Z,0
2022-11-05T21:21:25.245Z,0
2022-11-05T21:26:29.424Z,0
2022-11-05T21:31:33.555Z,0
2022-11-05T21:36:37.697Z,0
2022-11-05T21:41:41.882Z,0
2022-11-05T21:46:46.007Z,0
2022-11-05T21:51:50.198Z,0
2022-11-05T21:56:54.316Z,0
2022-11-05T22:02:00.573Z,0
2022-11-05T22:07:02.680Z,0
2022-11-05T22:12:06.841Z,0
2022-11-05T22:17:10.999Z,0
2022-11-05T22:22:15.181Z,0
2022-11-05T22:27:19.338Z,0
2022-11-05T22:32:23.478Z,0
2022-11-05T22:37:27.637Z,0
2022-11-05T22:42:31.955Z,0
2022-11-05T22:47:35.947Z,0
2022-11-05T22:52:40.137Z,0
2022-11-05T22:57:44.266Z,0
2022-11-05T23:02:48.559Z,0
2022-11-05T23:07:52.598Z,0
2022-11-05T23:12:56.766Z,0
2022-11-05T23:18:00.943Z,0
2022-11-05T23:23:05.098Z,0
2022-11-05T23:28:09.449Z,0
2022-11-05T23:33:13.434Z,0
2022-11-05T23:38:17.562Z,0
2022-11-05T23:43:21.742Z,0
2022-11-05T23:48:25.908Z,0
2022-11-05T23:53:30.049Z,0
2022-11-05T23:58:34.241Z,0
